createdAt,value
2018-04-28T00:00:12.135Z,99.90
2018-04-28T00:02:40.387Z,99.90
2018-04-28T00:05:08.625Z,99.90
2018-04-28T00:07:36.126Z,99.90
2018-04-28T00:10:04.376Z,99.90
2018-04-28T00:12:31.839Z,99.90
2018-04-28T00:14:59.321Z,99.90
2018-04-28T00:17:33.631Z,99.90
2018-04-28T00:20:01.794Z,99.90
2018-04-28T00:22:34.450Z,99.90
2018-04-28T00:25:20.135Z,99.90
2018-04-28T00:30:53.932Z,99.90
2018-04-28T00:33:24.901Z,99.90
2018-04-28T00:39:05.512Z,99.90
2018-04-28T00:41:33.795Z,99.90
2018-04-28T00:44:17.000Z,99.90
2018-04-28T00:46:45.965Z,99.90
2018-04-28T00:49:14.091Z,99.90
2018-04-28T00:51:44.861Z,99.90
2018-04-28T00:54:16.016Z,99.90
2018-04-28T00:56:59.025Z,99.90
2018-04-28T00:59:27.191Z,99.90
2018-04-28T01:02:09.642Z,99.90
2018-04-28T01:04:47.404Z,99.90
2018-04-28T01:07:28.116Z,99.90
2018-04-28T01:10:00.584Z,99.90
2018-04-28T01:12:29.616Z,99.90
2018-04-28T01:15:02.054Z,99.90
2018-04-28T01:17:29.529Z,99.90
2018-04-28T01:20:19.596Z,99.90
2018-04-28T01:22:47.830Z,99.90
2018-04-28T01:25:26.095Z,99.90
2018-04-28T01:27:55.964Z,99.90
2018-04-28T01:30:36.934Z,99.90
2018-04-28T01:36:09.035Z,99.90
2018-04-28T01:38:40.925Z,99.90
2018-04-28T01:41:18.068Z,99.90
2018-04-28T01:43:46.857Z,99.90
2018-04-28T01:46:20.800Z,99.90
2018-04-28T01:51:57.410Z,99.90
2018-04-28T01:54:45.760Z,99.90
2018-04-28T01:57:19.199Z,99.90
2018-04-28T02:00:11.348Z,99.90
2018-04-28T02:02:43.839Z,99.90
2018-04-28T02:08:25.222Z,99.90
2018-04-28T02:10:56.529Z,99.90
2018-04-28T02:13:29.889Z,99.90
2018-04-28T02:16:02.071Z,99.90
2018-04-28T02:18:35.311Z,99.90
2018-04-28T02:24:30.756Z,99.90
2018-04-28T02:26:58.935Z,99.90
2018-04-28T02:29:36.739Z,99.90
2018-04-28T02:32:18.263Z,99.90
2018-04-28T02:34:52.966Z,99.90
2018-04-28T02:37:22.364Z,99.90
2018-04-28T02:39:57.930Z,99.90
2018-04-28T02:42:32.604Z,99.90
2018-04-28T02:48:27.110Z,99.90
2018-04-28T02:50:59.133Z,99.90
2018-04-28T02:53:30.012Z,99.90
2018-04-28T02:56:11.945Z,99.90
2018-04-28T02:58:45.342Z,99.90
2018-04-28T03:01:26.864Z,99.90
2018-04-28T03:03:55.614Z,99.90
2018-04-28T03:06:32.251Z,99.90
2018-04-28T03:09:00.124Z,99.90
2018-04-28T03:11:32.583Z,99.90
2018-04-28T03:14:00.040Z,99.90
2018-04-28T03:16:33.083Z,99.90
2018-04-28T03:19:04.865Z,99.90
2018-04-28T03:21:33.064Z,99.90
2018-04-28T03:24:01.461Z,99.90
2018-04-28T03:26:29.462Z,99.90
2018-04-28T03:29:06.499Z,99.90
2018-04-28T03:31:43.855Z,99.90
2018-04-28T03:34:16.683Z,99.90
2018-04-28T03:36:44.147Z,99.90
2018-04-28T03:39:18.055Z,99.90
2018-04-28T03:41:47.189Z,99.90
2018-04-28T03:47:38.475Z,99.90
2018-04-28T03:50:12.821Z,99.90
2018-04-28T03:52:46.039Z,99.90
2018-04-28T03:55:14.267Z,99.90
2018-04-28T04:00:53.278Z,99.90
2018-04-28T04:03:21.884Z,99.90
2018-04-28T04:05:52.602Z,99.90
2018-04-28T04:08:35.514Z,99.90
2018-04-28T04:11:12.517Z,99.90
2018-04-28T04:13:41.621Z,99.90
2018-04-28T04:16:18.515Z,99.90
2018-04-28T04:21:58.850Z,99.90
2018-04-28T04:24:33.169Z,99.90
2018-04-28T04:27:10.474Z,99.90
2018-04-28T04:29:48.629Z,99.90
2018-04-28T04:32:17.640Z,99.90
2018-04-28T04:34:54.812Z,99.90
2018-04-28T04:37:27.446Z,99.90
2018-04-28T04:43:13.087Z,99.90
2018-04-28T04:45:53.315Z,99.90
2018-04-28T04:51:45.467Z,99.90
2018-04-28T04:57:14.183Z,99.90
2018-04-28T04:59:50.440Z,99.90
2018-04-28T05:02:22.573Z,99.90
2018-04-28T05:04:56.590Z,99.90
2018-04-28T05:07:24.073Z,99.90
2018-04-28T05:09:58.299Z,99.90
2018-04-28T05:12:34.901Z,99.90
2018-04-28T05:15:15.040Z,99.90
2018-04-28T05:18:08.387Z,99.90
2018-04-28T05:20:57.435Z,99.90
2018-04-28T05:23:34.684Z,99.90
2018-04-28T05:29:52.717Z,99.90
2018-04-28T05:32:28.806Z,99.90
2018-04-28T05:35:02.481Z,99.90
2018-04-28T05:37:37.824Z,99.90
2018-04-28T05:43:33.636Z,99.90
2018-04-28T05:46:15.690Z,99.90
2018-04-28T05:52:08.049Z,99.90
2018-04-28T05:57:44.335Z,99.90
2018-04-28T06:00:23.857Z,99.90
2018-04-28T06:03:04.214Z,99.90
2018-04-28T06:05:44.792Z,98.30
2018-04-28T06:08:33.978Z,98.10
2018-04-28T06:14:16.477Z,93.60
2018-04-28T06:16:57.758Z,91.00
2018-04-28T06:22:50.269Z,90.50
2018-04-28T06:25:18.528Z,88.90
2018-04-28T06:27:46.781Z,89.20
2018-04-28T06:30:15.872Z,83.80
2018-04-28T06:32:44.934Z,82.30
2018-04-28T06:35:12.631Z,82.20
2018-04-28T06:37:40.891Z,80.20
2018-04-28T06:40:09.216Z,82.20
2018-04-28T06:42:36.716Z,82.20
2018-04-28T06:45:04.203Z,80.40
2018-04-28T06:47:31.661Z,80.00
2018-04-28T06:49:59.175Z,81.40
2018-04-28T06:52:27.398Z,81.50
2018-04-28T06:54:57.584Z,81.10
2018-04-28T06:57:25.033Z,75.60
2018-04-28T06:59:52.581Z,76.00
2018-04-28T07:02:21.371Z,78.00
2018-04-28T07:04:49.150Z,77.40
2018-04-28T07:07:16.746Z,75.60
2018-04-28T07:09:45.655Z,74.10
2018-04-28T07:12:13.274Z,74.10
2018-04-28T07:14:41.588Z,74.20
2018-04-28T07:17:09.191Z,74.20
2018-04-28T07:19:37.390Z,75.40
2018-04-28T07:22:05.705Z,74.40
2018-04-28T07:24:33.656Z,74.40
2018-04-28T07:27:01.130Z,77.60
2018-04-28T07:29:28.769Z,75.20
2018-04-28T07:31:56.379Z,74.20
2018-04-28T07:34:24.380Z,75.00
2018-04-28T07:36:52.955Z,74.80
2018-04-28T07:39:21.211Z,75.40
2018-04-28T07:41:48.797Z,74.50
2018-04-28T07:44:17.398Z,72.50
2018-04-28T07:46:47.316Z,72.40
2018-04-28T07:49:14.820Z,69.60
2018-04-28T07:51:42.352Z,70.40
2018-04-28T07:54:10.243Z,71.00
2018-04-28T07:56:37.734Z,73.00
2018-04-28T07:59:05.947Z,70.20
2018-04-28T08:01:33.496Z,70.20
2018-04-28T08:04:00.971Z,72.00
2018-04-28T08:06:31.346Z,70.70
2018-04-28T08:09:00.019Z,70.40
2018-04-28T08:11:27.484Z,70.00
2018-04-28T08:13:55.024Z,70.40
2018-04-28T08:16:22.490Z,70.80
2018-04-28T08:18:50.739Z,66.60
2018-04-28T08:21:18.240Z,66.60
2018-04-28T08:23:46.842Z,70.30
2018-04-28T08:26:15.152Z,71.00
2018-04-28T08:28:42.681Z,71.10
2018-04-28T08:31:10.136Z,73.20
2018-04-28T08:33:37.661Z,74.40
2018-04-28T08:36:05.439Z,77.30
2018-04-28T08:38:33.738Z,78.90
2018-04-28T08:41:01.233Z,78.90
2018-04-28T08:43:28.747Z,74.80
2018-04-28T08:45:56.479Z,71.60
2018-04-28T08:48:24.364Z,73.00
2018-04-28T08:50:52.601Z,67.70
2018-04-28T08:53:20.115Z,67.50
2018-04-28T08:55:47.663Z,66.40
2018-04-28T08:58:15.893Z,68.50
2018-04-28T09:00:58.710Z,68.50
2018-04-28T09:03:26.796Z,67.70
2018-04-28T09:05:54.278Z,66.20
2018-04-28T09:08:22.605Z,66.50
2018-04-28T09:10:50.082Z,66.40
2018-04-28T09:13:17.563Z,66.30
2018-04-28T09:15:46.629Z,64.00
2018-04-28T09:18:14.636Z,63.90
2018-04-28T09:20:43.752Z,60.90
2018-04-28T09:23:11.204Z,60.90
2018-04-28T09:25:39.132Z,64.10
2018-04-28T09:28:06.671Z,63.40
2018-04-28T09:30:34.696Z,64.00
2018-04-28T09:33:02.204Z,62.70
2018-04-28T09:35:29.672Z,61.50
2018-04-28T09:37:57.227Z,63.60
2018-04-28T09:40:26.509Z,63.20
2018-04-28T09:42:53.990Z,63.20
2018-04-28T09:45:21.546Z,63.50
2018-04-28T09:47:49.008Z,66.70
2018-04-28T09:50:16.465Z,67.90
2018-04-28T09:52:44.008Z,66.50
2018-04-28T09:55:11.460Z,66.00
2018-04-28T09:57:38.919Z,65.30
2018-04-28T10:00:23.352Z,61.30
2018-04-28T10:02:51.473Z,63.00
2018-04-28T10:05:19.726Z,60.50
2018-04-28T10:07:47.187Z,60.40
2018-04-28T10:10:15.067Z,63.40
2018-04-28T10:12:42.510Z,61.50
2018-04-28T10:15:10.090Z,59.90
2018-04-28T10:17:38.370Z,58.10
2018-04-28T10:20:06.974Z,58.20
2018-04-28T10:22:34.407Z,58.10
2018-04-28T10:25:02.718Z,58.30
2018-04-28T10:27:30.787Z,58.10
2018-04-28T10:29:58.336Z,57.00
2018-04-28T10:32:27.281Z,55.20
2018-04-28T10:34:55.498Z,55.50
2018-04-28T10:37:22.953Z,54.80
2018-04-28T10:39:51.393Z,55.40
2018-04-28T10:42:18.944Z,55.40
2018-04-28T10:44:46.511Z,54.40
2018-04-28T10:47:14.807Z,54.50
2018-04-28T10:49:43.071Z,55.40
2018-04-28T10:52:10.743Z,55.40
2018-04-28T10:54:39.005Z,54.50
2018-04-28T10:57:06.456Z,53.70
2018-04-28T10:59:34.843Z,54.40
2018-04-28T11:02:02.292Z,56.60
2018-04-28T11:04:29.786Z,55.30
2018-04-28T11:06:58.023Z,50.80
2018-04-28T11:09:25.468Z,50.70
2018-04-28T11:11:53.595Z,51.30
2018-04-28T11:14:21.633Z,52.10
2018-04-28T11:16:49.087Z,51.20
2018-04-28T11:19:16.582Z,52.40
2018-04-28T11:21:44.074Z,53.40
2018-04-28T11:24:11.681Z,53.30
2018-04-28T11:26:39.217Z,52.60
2018-04-28T11:29:06.673Z,51.90
2018-04-28T11:31:36.921Z,53.80
2018-04-28T11:34:05.174Z,54.30
2018-04-28T11:36:32.734Z,54.20
2018-04-28T11:39:00.281Z,53.50
2018-04-28T11:41:27.729Z,54.00
2018-04-28T11:43:55.191Z,55.40
2018-04-28T11:46:23.582Z,56.60
2018-04-28T11:48:51.096Z,56.30
2018-04-28T11:51:18.659Z,55.60
2018-04-28T11:53:46.244Z,54.80
2018-04-28T11:56:14.228Z,55.50
2018-04-28T11:58:41.744Z,55.40
2018-04-28T12:01:09.217Z,54.20
2018-04-28T12:03:36.668Z,56.60
2018-04-28T12:06:04.120Z,55.50
2018-04-28T12:08:32.192Z,55.50
2018-04-28T12:10:59.837Z,55.10
2018-04-28T12:13:27.331Z,54.00
2018-04-28T12:15:54.814Z,55.40
2018-04-28T12:18:22.300Z,54.30
2018-04-28T12:20:49.795Z,54.60
2018-04-28T12:23:17.452Z,55.20
2018-04-28T12:25:44.931Z,53.50
2018-04-28T12:28:12.402Z,55.90
2018-04-28T12:30:40.085Z,56.90
2018-04-28T12:33:08.319Z,57.80
2018-04-28T12:35:36.756Z,57.80
2018-04-28T12:38:05.209Z,58.50
2018-04-28T12:40:32.779Z,59.30
2018-04-28T12:43:01.026Z,59.60
2018-04-28T12:45:28.600Z,59.60
2018-04-28T12:47:56.145Z,59.40
2018-04-28T12:50:23.605Z,59.40
2018-04-28T12:52:51.078Z,59.40
2018-04-28T12:55:18.539Z,60.50
2018-04-28T12:57:46.787Z,60.00
2018-04-28T13:00:14.284Z,60.00
2018-04-28T13:02:42.520Z,59.20
2018-04-28T13:05:09.994Z,59.20
2018-04-28T13:07:37.511Z,58.30
2018-04-28T13:10:05.012Z,57.80
2018-04-28T13:12:32.469Z,57.70
2018-04-28T13:15:00.426Z,57.70
2018-04-28T13:17:27.948Z,58.30
2018-04-28T13:19:55.341Z,58.40
2018-04-28T13:22:22.797Z,58.00
2018-04-28T13:24:50.256Z,57.80
2018-04-28T13:27:18.528Z,57.00
2018-04-28T13:29:45.999Z,57.10
2018-04-28T13:32:13.469Z,57.00
2018-04-28T13:34:41.698Z,58.30
2018-04-28T13:37:10.772Z,57.60
2018-04-28T13:39:38.813Z,57.10
2018-04-28T13:42:07.168Z,60.30
2018-04-28T13:44:34.684Z,60.20
2018-04-28T13:47:02.275Z,60.00
2018-04-28T13:49:29.762Z,61.20
2018-04-28T13:51:58.010Z,60.00
2018-04-28T13:54:25.787Z,60.00
2018-04-28T13:56:54.604Z,60.00
2018-04-28T13:59:22.852Z,58.90
2018-04-28T14:01:50.354Z,58.90
2018-04-28T14:04:17.850Z,58.20
2018-04-28T14:06:45.372Z,56.80
2018-04-28T14:09:12.856Z,57.20
2018-04-28T14:11:40.358Z,57.50
2018-04-28T14:14:08.575Z,59.90
2018-04-28T14:16:36.031Z,59.90
2018-04-28T14:19:03.840Z,59.00
2018-04-28T14:21:31.284Z,59.20
2018-04-28T14:23:59.202Z,60.70
2018-04-28T14:26:26.657Z,59.50
2018-04-28T14:28:55.292Z,59.80
2018-04-28T14:31:23.217Z,59.80
2018-04-28T14:33:50.681Z,60.10
2018-04-28T14:36:18.239Z,59.60
2018-04-28T14:38:45.736Z,59.50
2018-04-28T14:41:14.215Z,60.40
2018-04-28T14:43:41.780Z,61.00
2018-04-28T14:46:09.339Z,63.20
2018-04-28T14:48:36.897Z,63.40
2018-04-28T14:51:04.444Z,63.80
2018-04-28T14:53:34.436Z,64.10
2018-04-28T14:56:01.932Z,64.30
2018-04-28T14:58:29.657Z,65.20
2018-04-28T15:00:57.109Z,65.50
2018-04-28T15:03:25.263Z,65.70
2018-04-28T15:05:53.031Z,66.70
2018-04-28T15:08:20.484Z,66.90
2018-04-28T15:10:48.004Z,66.00
2018-04-28T15:13:15.476Z,66.90
2018-04-28T15:15:42.987Z,67.90
2018-04-28T15:18:10.449Z,65.20
2018-04-28T15:20:37.935Z,65.30
2018-04-28T15:23:05.405Z,62.10
2018-04-28T15:25:32.951Z,60.80
2018-04-28T15:28:00.460Z,61.80
2018-04-28T15:30:27.927Z,63.40
2018-04-28T15:32:55.480Z,62.00
2018-04-28T15:35:23.484Z,61.40
2018-04-28T15:37:51.940Z,60.70
2018-04-28T15:40:19.804Z,62.70
2018-04-28T15:42:47.314Z,61.80
2018-04-28T15:45:14.833Z,62.70
2018-04-28T15:47:49.006Z,62.40
2018-04-28T15:50:17.316Z,61.80
2018-04-28T15:52:44.789Z,61.70
2018-04-28T15:55:12.331Z,62.40
2018-04-28T15:57:39.801Z,62.30
2018-04-28T16:00:07.332Z,60.20
2018-04-28T16:02:34.846Z,60.60
2018-04-28T16:05:02.295Z,59.70
2018-04-28T16:07:29.778Z,60.20
2018-04-28T16:09:57.995Z,61.30
2018-04-28T16:12:25.641Z,60.50
2018-04-28T16:14:53.186Z,60.00
2018-04-28T16:17:20.691Z,61.00
2018-04-28T16:19:48.237Z,62.40
2018-04-28T16:22:15.736Z,61.20
2018-04-28T16:24:43.190Z,62.00
2018-04-28T16:27:11.528Z,63.40
2018-04-28T16:29:39.184Z,63.40
2018-04-28T16:32:06.659Z,64.10
2018-04-28T16:34:34.135Z,62.80
2018-04-28T16:37:01.677Z,63.70
2018-04-28T16:39:29.179Z,65.00
2018-04-28T16:41:57.455Z,66.50
2018-04-28T16:44:25.692Z,67.90
2018-04-28T16:46:53.143Z,67.90
2018-04-28T16:49:20.669Z,67.70
2018-04-28T16:51:48.116Z,68.80
2018-04-28T16:54:15.586Z,69.40
2018-04-28T16:56:43.692Z,69.60
2018-04-28T16:59:11.190Z,68.80
2018-04-28T17:01:39.615Z,69.30
2018-04-28T17:04:07.061Z,69.30
2018-04-28T17:06:34.580Z,69.40
2018-04-28T17:09:01.996Z,69.80
2018-04-28T17:11:29.467Z,69.50
2018-04-28T17:13:56.990Z,70.40
2018-04-28T17:16:24.473Z,70.80
2018-04-28T17:18:51.952Z,71.30
2018-04-28T17:21:20.318Z,71.80
2018-04-28T17:23:47.875Z,72.30
2018-04-28T17:26:15.341Z,72.10
2018-04-28T17:28:42.822Z,72.60
2018-04-28T17:31:11.268Z,74.40
2018-04-28T17:33:39.023Z,74.40
2018-04-28T17:36:06.548Z,75.10
2018-04-28T17:38:34.058Z,75.70
2018-04-28T17:41:02.024Z,75.80
2018-04-28T17:43:29.779Z,76.60
2018-04-28T17:45:57.363Z,77.00
2018-04-28T17:48:25.616Z,77.40
2018-04-28T17:50:53.237Z,78.60
2018-04-28T17:53:20.750Z,80.40
2018-04-28T17:55:48.390Z,81.90
2018-04-28T17:58:15.895Z,82.60
2018-04-28T18:00:44.229Z,90.00
2018-04-28T18:03:11.838Z,89.90
2018-04-28T18:05:40.237Z,92.50
2018-04-28T18:08:07.743Z,92.40
2018-04-28T18:10:35.279Z,92.80
2018-04-28T18:13:02.914Z,95.50
2018-04-28T18:15:31.260Z,99.90
2018-04-28T18:17:59.469Z,99.90
2018-04-28T18:20:27.267Z,99.90
2018-04-28T18:22:54.990Z,99.90
2018-04-28T18:25:22.741Z,99.90
2018-04-28T18:27:51.120Z,99.90
2018-04-28T18:30:19.462Z,99.90
2018-04-28T18:32:49.016Z,99.90
2018-04-28T18:35:16.667Z,99.90
2018-04-28T18:37:45.195Z,99.90
2018-04-28T18:40:13.112Z,99.90
2018-04-28T18:42:41.567Z,99.90
2018-04-28T18:45:09.459Z,99.90
2018-04-28T18:47:38.021Z,99.90
2018-04-28T18:50:05.602Z,99.90
2018-04-28T18:52:34.223Z,99.90
2018-04-28T18:55:01.676Z,99.90
2018-04-28T18:57:30.173Z,99.90
2018-04-28T18:59:57.784Z,99.90
2018-04-28T19:02:26.686Z,99.90
2018-04-28T19:04:54.175Z,99.90
2018-04-28T19:07:21.830Z,99.90
2018-04-28T19:09:49.676Z,99.90
2018-04-28T19:12:17.177Z,99.90
2018-04-28T19:14:45.033Z,99.90
2018-04-28T19:17:12.618Z,99.90
2018-04-28T19:19:40.663Z,99.90
2018-04-28T19:22:08.380Z,99.90
2018-04-28T19:24:35.891Z,99.90
2018-04-28T19:27:03.539Z,99.90
2018-04-28T19:29:31.161Z,99.90
2018-04-28T19:31:59.372Z,99.90
2018-04-28T19:34:26.864Z,99.90
2018-04-28T19:36:54.689Z,99.90
2018-04-28T19:39:22.320Z,99.90
2018-04-28T19:41:50.609Z,99.90
2018-04-28T19:44:18.208Z,99.90
2018-04-28T19:46:45.818Z,99.90
2018-04-28T19:49:16.816Z,99.90
2018-04-28T19:51:44.710Z,99.90
2018-04-28T19:54:13.271Z,99.90
2018-04-28T19:56:41.252Z,99.90
2018-04-28T19:59:08.961Z,99.90
2018-04-28T20:01:36.493Z,99.90
2018-04-28T20:04:04.899Z,99.90
2018-04-28T20:06:32.540Z,99.90
2018-04-28T20:09:00.839Z,99.90
2018-04-28T20:11:28.877Z,99.90
2018-04-28T20:13:57.818Z,99.90
2018-04-28T20:16:25.543Z,99.90
2018-04-28T20:18:53.939Z,99.90
2018-04-28T20:21:21.594Z,99.90
2018-04-28T20:24:01.545Z,99.90
2018-04-28T20:26:29.059Z,99.90
2018-04-28T20:28:56.543Z,99.90
2018-04-28T20:31:24.782Z,99.90
2018-04-28T20:33:53.265Z,99.90
2018-04-28T20:36:20.825Z,99.90
2018-04-28T20:38:49.571Z,99.90
2018-04-28T20:41:17.752Z,99.90
2018-04-28T20:43:45.230Z,99.90
2018-04-28T20:46:12.699Z,99.90
2018-04-28T20:48:40.223Z,99.90
2018-04-28T20:51:08.408Z,99.90
2018-04-28T20:53:35.872Z,99.90
2018-04-28T20:56:03.372Z,99.90
2018-04-28T20:58:31.671Z,99.90
2018-04-28T21:00:59.767Z,99.90
2018-04-28T21:03:27.518Z,99.90
2018-04-28T21:05:54.960Z,99.90
2018-04-28T21:08:22.417Z,99.90
2018-04-28T21:10:49.895Z,99.90
2018-04-28T21:13:17.344Z,99.90
2018-04-28T21:15:44.823Z,99.90
2018-04-28T21:18:12.305Z,99.90
2018-04-28T21:20:41.977Z,99.90
2018-04-28T21:23:11.288Z,99.90
2018-04-28T21:25:38.731Z,99.90
2018-04-28T21:28:06.183Z,99.90
2018-04-28T21:30:33.645Z,99.90
2018-04-28T21:33:01.096Z,99.90
2018-04-28T21:35:29.095Z,99.90
2018-04-28T21:37:56.567Z,99.90
2018-04-28T21:40:24.022Z,99.90
2018-04-28T21:42:52.062Z,99.90
2018-04-28T21:45:19.512Z,99.90
2018-04-28T21:47:46.980Z,99.90
2018-04-28T21:50:15.940Z,99.90
2018-04-28T21:52:44.147Z,99.90
2018-04-28T21:55:11.601Z,99.90
2018-04-28T21:57:39.047Z,99.90
2018-04-28T22:00:07.053Z,99.90
2018-04-28T22:02:34.515Z,99.90
2018-04-28T22:05:01.976Z,99.90
2018-04-28T22:07:32.033Z,99.90
2018-04-28T22:10:00.104Z,99.90
2018-04-28T22:12:28.338Z,99.90
2018-04-28T22:14:56.320Z,99.90
2018-04-28T22:17:23.785Z,99.90
2018-04-28T22:19:52.062Z,99.90
2018-04-28T22:22:20.308Z,99.90
2018-04-28T22:24:47.783Z,99.90
2018-04-28T22:27:16.368Z,99.90
2018-04-28T22:29:43.824Z,99.90
2018-04-28T22:32:11.741Z,99.90
2018-04-28T22:34:39.846Z,99.90
2018-04-28T22:37:07.501Z,99.90
2018-04-28T22:39:35.037Z,99.90
2018-04-28T22:42:02.684Z,99.90
2018-04-28T22:44:30.755Z,99.90
2018-04-28T22:46:58.425Z,99.90
2018-04-28T22:49:25.883Z,99.90
2018-04-28T22:51:53.400Z,99.90
2018-04-28T22:54:20.787Z,99.90
2018-04-28T22:56:48.240Z,99.90
2018-04-28T22:59:15.697Z,99.90
2018-04-28T23:01:43.140Z,99.90
2018-04-28T23:04:11.351Z,99.90
2018-04-28T23:06:38.859Z,99.90
2018-04-28T23:09:06.255Z,99.90
2018-04-28T23:11:33.810Z,99.90
2018-04-28T23:14:01.248Z,99.90
2018-04-28T23:16:28.689Z,99.90
2018-04-28T23:18:56.943Z,99.90
2018-04-28T23:21:24.372Z,99.90
2018-04-28T23:23:51.819Z,99.90
2018-04-28T23:26:19.882Z,99.90
2018-04-28T23:28:47.328Z,99.90
2018-04-28T23:31:14.771Z,99.90
2018-04-28T23:33:42.993Z,99.90
2018-04-28T23:36:10.440Z,99.90
2018-04-28T23:38:37.884Z,99.90
2018-04-28T23:41:05.649Z,99.90
2018-04-28T23:43:33.504Z,99.90
2018-04-28T23:46:00.952Z,99.90
2018-04-28T23:48:28.399Z,99.90
2018-04-28T23:50:56.608Z,99.90
2018-04-28T23:53:24.387Z,99.90
2018-04-28T23:55:51.836Z,99.90
2018-04-28T23:58:19.727Z,99.90
